createdAt,value
2019-04-26T00:01:56.744Z,20.07
2019-04-26T00:05:59.231Z,17.63
2019-04-26T00:10:03.397Z,16.07
2019-04-26T00:14:30.931Z,14.40
2019-04-26T00:18:33.151Z,15.60
2019-04-26T00:22:35.512Z,15.50
2019-04-26T00:26:37.618Z,13.87
2019-04-26T00:30:39.841Z,16.57
2019-04-26T00:34:42.981Z,15.10
2019-04-26T00:38:45.441Z,18.43
2019-04-26T00:42:48.009Z,18.80
2019-04-26T00:46:51.096Z,16.90
2019-04-26T00:50:54.485Z,14.23
2019-04-26T00:54:58.509Z,13.13
2019-04-26T00:59:01.893Z,15.60
2019-04-26T01:03:04.154Z,13.77
2019-04-26T01:07:06.438Z,13.13
2019-04-26T01:11:08.936Z,16.80
2019-04-26T01:15:11.524Z,14.13
2019-04-26T01:19:17.095Z,12.70
2019-04-26T01:23:20.999Z,13.77
2019-04-26T01:27:26.308Z,13.93
2019-04-26T01:31:31.924Z,13.57
2019-04-26T01:35:34.437Z,13.17
2019-04-26T01:39:40.541Z,12.93
2019-04-26T01:44:03.408Z,12.93
2019-04-26T01:48:29.221Z,16.37
2019-04-26T01:52:32.619Z,17.47
2019-04-26T01:56:36.678Z,20.03
2019-04-26T02:01:01.076Z,11.17
2019-04-26T02:05:07.860Z,15.30
2019-04-26T02:09:11.584Z,14.23
2019-04-26T02:13:14.093Z,11.87
2019-04-26T02:17:16.372Z,13.43
2019-04-26T02:21:26.390Z,13.13
2019-04-26T02:25:30.097Z,15.63
2019-04-26T02:29:32.782Z,14.10
2019-04-26T02:33:36.783Z,15.17
2019-04-26T02:37:39.365Z,12.27
2019-04-26T02:41:42.822Z,11.80
2019-04-26T02:46:20.853Z,12.30
2019-04-26T02:50:35.369Z,12.93
2019-04-26T02:54:46.803Z,19.43
2019-04-26T02:59:20.758Z,12.77
2019-04-26T03:03:25.856Z,12.10
2019-04-26T03:07:46.809Z,15.87
2019-04-26T03:11:52.160Z,14.23
2019-04-26T03:16:18.526Z,16.87
2019-04-26T03:20:24.195Z,10.77
2019-04-26T03:24:35.072Z,13.87
2019-04-26T03:28:44.602Z,14.90
2019-04-26T03:33:16.567Z,13.20
2019-04-26T03:38:00.964Z,15.13
2019-04-26T03:42:21.052Z,12.60
2019-04-26T03:46:33.604Z,19.27
2019-04-26T03:50:44.916Z,12.13
2019-04-26T03:54:50.123Z,12.70
2019-04-26T03:59:31.617Z,13.80
2019-04-26T04:03:53.457Z,14.40
2019-04-26T04:07:58.501Z,11.60
2019-04-26T04:12:11.414Z,14.60
2019-04-26T04:17:22.437Z,12.03
2019-04-26T04:21:57.684Z,13.47
2019-04-26T04:26:02.623Z,9.67
2019-04-26T04:30:20.787Z,12.33
2019-04-26T04:34:29.617Z,13.57
2019-04-26T04:38:48.426Z,17.87
2019-04-26T04:43:26.114Z,14.90
2019-04-26T04:47:37.534Z,12.03
2019-04-26T04:51:51.543Z,14.23
2019-04-26T04:56:34.789Z,10.47
2019-04-26T05:01:03.608Z,18.60
2019-04-26T05:05:36.381Z,15.10
2019-04-26T05:09:49.766Z,23.20
2019-04-26T05:14:01.287Z,14.37
2019-04-26T05:18:29.337Z,11.97
2019-04-26T05:23:07.180Z,24.23
2019-04-26T05:28:09.445Z,15.03
2019-04-26T05:32:34.269Z,13.83
2019-04-26T05:37:00.471Z,16.07
2019-04-26T05:41:33.671Z,16.17
2019-04-26T05:46:19.205Z,16.10
2019-04-26T05:51:02.207Z,12.90
2019-04-26T05:56:07.260Z,15.03
2019-04-26T06:00:38.110Z,13.57
2019-04-26T06:05:26.880Z,11.33
2019-04-26T06:09:54.481Z,11.57
2019-04-26T06:14:38.527Z,22.93
2019-04-26T06:19:07.546Z,14.70
2019-04-26T06:23:32.160Z,14.80
2019-04-26T06:27:54.456Z,12.57
2019-04-26T06:32:11.103Z,13.23
2019-04-26T06:36:23.511Z,15.43
2019-04-26T06:40:48.963Z,13.50
2019-04-26T06:46:00.968Z,13.67
2019-04-26T06:50:49.729Z,11.03
2019-04-26T06:55:47.616Z,12.40
2019-04-26T07:00:18.387Z,21.87
2019-04-26T07:04:31.468Z,14.17
2019-04-26T07:08:57.808Z,10.10
2019-04-26T07:13:29.725Z,13.80
2019-04-26T07:18:24.844Z,12.40
2019-04-26T07:23:12.589Z,12.20
2019-04-26T07:27:25.163Z,14.80
2019-04-26T07:31:36.469Z,19.13
2019-04-26T07:36:04.087Z,11.23
2019-04-26T07:40:55.115Z,12.40
2019-04-26T07:45:30.430Z,14.00
2019-04-26T07:50:31.836Z,11.37
2019-04-26T07:55:03.242Z,12.07
2019-04-26T07:59:43.941Z,13.23
2019-04-26T08:03:57.451Z,14.17
2019-04-26T08:08:01.649Z,13.23
2019-04-26T08:12:08.224Z,10.97
2019-04-26T08:16:34.677Z,11.33
2019-04-26T08:20:48.503Z,16.73
2019-04-26T08:24:53.269Z,12.23
2019-04-26T08:29:00.603Z,10.97
2019-04-26T08:33:07.430Z,12.27
2019-04-26T08:37:24.258Z,12.20
2019-04-26T08:41:27.024Z,12.53
2019-04-26T08:46:01.981Z,18.20
2019-04-26T08:50:15.181Z,13.37
2019-04-26T08:54:27.641Z,13.60
2019-04-26T08:58:32.748Z,23.73
2019-04-26T09:03:11.318Z,25.90
2019-04-26T09:07:10.747Z,24.97
2019-04-26T09:11:24.085Z,12.10
2019-04-26T09:15:24.966Z,10.43
2019-04-26T09:19:30.563Z,14.33
2019-04-26T09:23:51.836Z,13.70
2019-04-26T09:27:59.657Z,12.43
2019-04-26T09:32:09.416Z,13.50
2019-04-26T09:36:11.801Z,20.50
2019-04-26T09:40:21.057Z,14.53
2019-04-26T09:44:28.216Z,8.73
2019-04-26T09:49:08.556Z,11.93
2019-04-26T09:53:11.013Z,14.53
2019-04-26T09:57:13.151Z,11.03
2019-04-26T10:01:15.185Z,8.87
2019-04-26T10:05:17.771Z,15.10
2019-04-26T10:09:22.705Z,9.97
2019-04-26T10:13:49.747Z,11.80
2019-04-26T10:17:52.507Z,9.17
2019-04-26T10:21:54.619Z,12.77
2019-04-26T10:25:56.935Z,15.63
2019-04-26T10:30:07.650Z,12.37
2019-04-26T10:34:07.797Z,14.33
2019-04-26T10:38:07.938Z,12.00
2019-04-26T10:42:10.157Z,11.53
2019-04-26T10:46:12.196Z,12.63
2019-04-26T10:50:14.718Z,12.10
2019-04-26T10:54:19.458Z,12.80
2019-04-26T10:58:46.689Z,17.13
2019-04-26T11:02:49.022Z,15.33
2019-04-26T11:06:51.068Z,11.90
2019-04-26T11:10:53.073Z,13.70
2019-04-26T11:14:56.989Z,13.57
2019-04-26T11:19:01.220Z,19.27
2019-04-26T11:23:04.385Z,14.73
2019-04-26T11:27:09.671Z,12.93
2019-04-26T11:31:10.371Z,16.30
2019-04-26T11:35:12.599Z,13.33
2019-04-26T11:39:16.875Z,16.27
2019-04-26T11:43:19.663Z,14.00
2019-04-26T11:47:22.457Z,18.23
2019-04-26T11:51:27.538Z,13.17
2019-04-26T11:55:29.797Z,14.50
2019-04-26T11:59:33.763Z,31.30
2019-04-26T12:03:35.998Z,14.93
2019-04-26T12:07:49.539Z,16.23
2019-04-26T12:12:03.961Z,19.47
2019-04-26T12:15:55.612Z,13.50
2019-04-26T12:19:58.122Z,11.20
2019-04-26T12:24:00.259Z,10.30
2019-04-26T12:28:06.059Z,14.27
2019-04-26T12:32:06.654Z,13.80
2019-04-26T12:36:09.467Z,15.23
2019-04-26T12:40:13.355Z,14.90
2019-04-26T12:44:15.935Z,12.40
2019-04-26T12:48:21.541Z,14.83
2019-04-26T12:52:23.765Z,18.67
2019-04-26T12:56:26.582Z,27.23
2019-04-26T13:00:32.854Z,13.93
2019-04-26T13:04:36.324Z,16.27
2019-04-26T13:08:37.632Z,12.00
2019-04-26T13:13:08.230Z,15.37
2019-04-26T13:17:13.899Z,12.13
2019-04-26T13:21:16.036Z,16.40
2019-04-26T13:25:26.264Z,18.27
2019-04-26T17:18:23.881Z,20.40
2019-04-26T17:22:44.225Z,25.77
2019-04-26T17:26:44.906Z,28.10
2019-04-26T17:30:47.072Z,21.73
2019-04-26T17:34:49.518Z,21.10
2019-04-26T17:38:51.695Z,17.30
2019-04-26T17:42:53.921Z,19.77
2019-04-26T17:46:59.499Z,19.10
2019-04-26T17:51:00.522Z,17.40
2019-04-26T17:55:02.603Z,17.90
2019-04-26T17:59:09.408Z,17.87
2019-04-26T18:03:13.128Z,16.67
2019-04-26T18:07:34.612Z,21.33
2019-04-26T18:11:19.569Z,25.80
2019-04-26T18:15:20.229Z,19.33
2019-04-26T18:19:42.330Z,17.67
2019-04-26T18:23:44.799Z,19.83
2019-04-26T18:27:46.825Z,21.70
2019-04-26T18:31:49.168Z,19.77
2019-04-26T18:35:55.938Z,16.10
2019-04-26T18:39:57.438Z,22.57
2019-04-26T18:43:59.744Z,20.13
2019-04-26T18:48:04.792Z,22.53
2019-04-26T18:52:08.882Z,23.90
2019-04-26T18:56:12.641Z,21.53
2019-04-26T19:00:26.508Z,20.10
2019-04-26T19:04:27.083Z,17.77
2019-04-26T19:08:29.205Z,22.93
2019-04-26T19:12:32.530Z,23.77
2019-04-26T19:16:59.270Z,20.00
2019-04-26T19:21:26.889Z,22.37
2019-04-26T19:25:35.654Z,28.90
2019-04-26T19:29:36.241Z,17.50
2019-04-26T19:33:38.502Z,20.60
2019-04-26T19:37:40.727Z,25.37
2019-04-26T19:41:43.176Z,27.87
2019-04-26T19:46:10.370Z,22.87
2019-04-26T19:50:50.535Z,22.17
2019-04-26T19:55:24.367Z,25.27
2019-04-26T19:59:27.533Z,32.17
2019-04-26T20:03:32.052Z,21.70
2019-04-26T20:07:34.433Z,24.40
2019-04-26T20:11:36.655Z,24.07
2019-04-26T20:15:38.783Z,29.60
2019-04-26T20:19:42.648Z,28.20
2019-04-26T20:23:47.323Z,24.70
2019-04-26T20:27:49.248Z,24.97
2019-04-26T20:32:09.068Z,27.60
2019-04-26T20:36:11.416Z,28.77
2019-04-26T20:40:20.210Z,27.93
2019-04-26T20:44:23.778Z,22.73
2019-04-26T20:48:25.548Z,27.90
2019-04-26T20:52:25.944Z,25.33
2019-04-26T20:56:28.213Z,19.97
2019-04-26T21:00:31.666Z,20.50
2019-04-26T21:04:38.194Z,25.10
2019-04-26T21:08:38.852Z,21.17
2019-04-26T21:12:41.801Z,23.37
2019-04-26T21:16:49.396Z,25.03
2019-04-26T21:20:47.845Z,20.80
2019-04-26T21:24:55.357Z,28.73
2019-04-26T21:29:28.008Z,29.80
2019-04-26T21:33:39.028Z,24.93
2019-04-26T21:37:45.469Z,23.53
2019-04-26T21:41:48.525Z,24.30
2019-04-26T21:45:50.791Z,26.83
2019-04-26T21:49:58.914Z,26.23
2019-04-26T21:53:57.122Z,24.63
2019-04-26T21:57:59.435Z,30.73
2019-04-26T22:02:03.384Z,26.33
2019-04-26T22:06:05.957Z,24.97
2019-04-26T22:10:14.981Z,25.70
2019-04-26T22:14:23.521Z,19.90
2019-04-26T22:18:35.077Z,19.53
2019-04-26T22:22:56.234Z,21.53
2019-04-26T22:26:58.575Z,18.83
2019-04-26T22:31:06.822Z,24.23
2019-04-26T22:35:04.909Z,22.00
2019-04-26T22:39:11.095Z,23.13
2019-04-26T22:43:30.679Z,24.97
2019-04-26T22:47:44.023Z,25.57
2019-04-26T22:51:46.053Z,24.50
2019-04-26T22:55:48.177Z,22.17
2019-04-26T22:59:50.745Z,28.27
2019-04-26T23:03:53.295Z,27.60
2019-04-26T23:07:59.269Z,26.60
2019-04-26T23:12:06.739Z,24.67
2019-04-26T23:16:40.411Z,22.70
2019-04-26T23:20:50.091Z,27.07
2019-04-26T23:24:54.530Z,24.57
2019-04-26T23:28:56.165Z,27.90
2019-04-26T23:32:58.499Z,23.50
2019-04-26T23:37:00.759Z,24.23
2019-04-26T23:41:06.964Z,24.30
2019-04-26T23:45:10.823Z,25.33
2019-04-26T23:49:11.868Z,23.70
2019-04-26T23:53:14.136Z,26.47
2019-04-26T23:57:16.230Z,25.50
